createdAt,value
2023-03-22T00:01:21.797Z,12.03
2023-03-22T00:03:49.838Z,10.20
2023-03-22T00:06:17.438Z,12.00
2023-03-22T00:08:45.610Z,11.40
2023-03-22T00:11:13.236Z,11.77
2023-03-22T00:13:42.354Z,9.60
2023-03-22T00:16:10.657Z,9.90
2023-03-22T00:18:38.079Z,9.73
2023-03-22T00:21:05.904Z,8.70
2023-03-22T00:23:33.268Z,9.83
2023-03-22T00:26:00.646Z,8.53
2023-03-22T00:28:28.004Z,8.80
2023-03-22T00:30:56.908Z,7.70
2023-03-22T00:33:24.204Z,8.90
2023-03-22T00:35:53.051Z,8.40
2023-03-22T00:38:27.257Z,8.37
2023-03-22T00:40:49.922Z,7.50
2023-03-22T00:43:17.353Z,8.70
2023-03-22T00:45:44.795Z,7.77
2023-03-22T00:48:12.466Z,7.73
2023-03-22T00:50:41.042Z,7.73
2023-03-22T00:53:08.558Z,8.00
2023-03-22T00:55:35.879Z,7.73
2023-03-22T00:58:03.778Z,8.43
2023-03-22T01:00:32.049Z,8.17
2023-03-22T01:02:59.680Z,7.80
2023-03-22T01:05:28.271Z,9.03
2023-03-22T01:07:56.700Z,7.93
2023-03-22T01:10:24.044Z,7.43
2023-03-22T01:12:51.595Z,7.33
2023-03-22T01:15:18.900Z,7.70
2023-03-22T01:17:46.356Z,8.30
2023-03-22T01:20:13.674Z,7.80
2023-03-22T01:22:41.477Z,7.90
2023-03-22T01:25:09.169Z,8.33
2023-03-22T01:27:36.963Z,8.03
2023-03-22T01:30:05.315Z,7.57
2023-03-22T01:32:32.574Z,7.33
2023-03-22T01:35:00.372Z,8.47
2023-03-22T01:37:27.729Z,8.13
2023-03-22T01:39:55.444Z,8.03
2023-03-22T01:42:23.393Z,8.00
2023-03-22T01:45:08.911Z,9.20
2023-03-22T01:47:36.275Z,9.07
2023-03-22T01:50:03.740Z,8.90
2023-03-22T01:52:31.144Z,9.47
2023-03-22T01:54:58.468Z,10.00
2023-03-22T01:57:25.911Z,9.20
2023-03-22T01:59:53.238Z,9.53
2023-03-22T02:02:21.884Z,8.80
2023-03-22T02:04:51.091Z,8.27
2023-03-22T02:07:20.855Z,8.03
2023-03-22T02:09:48.171Z,8.90
2023-03-22T02:12:33.698Z,9.57
2023-03-22T02:15:05.184Z,9.60
2023-03-22T02:17:36.918Z,9.10
2023-03-22T02:20:24.328Z,9.43
2023-03-22T02:23:08.510Z,10.63
2023-03-22T02:25:43.554Z,10.80
2023-03-22T02:28:12.462Z,10.53
2023-03-22T02:30:56.552Z,10.23
2023-03-22T02:33:25.494Z,10.40
2023-03-22T02:36:00.541Z,9.40
2023-03-22T02:38:46.193Z,10.97
2023-03-22T02:41:21.307Z,10.13
2023-03-22T02:43:53.085Z,9.53
2023-03-22T02:46:22.008Z,9.90
2023-03-22T02:49:00.077Z,10.77
2023-03-22T02:51:31.624Z,9.90
2023-03-22T02:54:07.965Z,10.03
2023-03-22T02:56:38.467Z,10.60
2023-03-22T02:59:07.528Z,10.10
2023-03-22T03:01:36.479Z,9.70
2023-03-22T03:04:05.802Z,10.57
2023-03-22T03:06:35.576Z,10.17
2023-03-22T03:09:04.952Z,10.40
2023-03-22T03:11:32.656Z,10.37
2023-03-22T03:14:00.027Z,11.10
2023-03-22T03:16:29.036Z,10.40
2023-03-22T03:18:57.885Z,10.57
2023-03-22T03:21:35.622Z,11.40
2023-03-22T03:24:19.773Z,11.20
2023-03-22T03:26:54.819Z,11.63
2023-03-22T03:29:23.688Z,11.20
2023-03-22T03:31:55.431Z,10.53
2023-03-22T03:34:24.251Z,10.80
2023-03-22T03:36:59.079Z,11.20
2023-03-22T03:39:27.949Z,11.70
2023-03-22T03:41:56.040Z,10.80
2023-03-22T03:44:23.763Z,11.60
2023-03-22T03:46:52.201Z,11.53
2023-03-22T03:49:20.949Z,11.30
2023-03-22T03:51:50.087Z,11.37
2023-03-22T03:54:17.536Z,12.20
2023-03-22T03:56:46.502Z,12.80
2023-03-22T03:59:15.684Z,12.70
2023-03-22T04:01:45.386Z,12.70
2023-03-22T04:04:13.912Z,12.23
2023-03-22T04:06:42.604Z,13.60
2023-03-22T04:09:10.148Z,14.47
2023-03-22T04:11:37.519Z,14.07
2023-03-22T04:14:04.823Z,13.97
2023-03-22T04:16:32.390Z,14.97
2023-03-22T04:18:59.691Z,15.27
2023-03-22T04:21:27.124Z,13.10
2023-03-22T04:23:55.430Z,14.93
2023-03-22T04:26:24.037Z,13.73
2023-03-22T04:28:51.767Z,14.17
2023-03-22T04:31:19.171Z,13.40
2023-03-22T04:33:46.787Z,13.37
2023-03-22T04:36:17.765Z,14.00
2023-03-22T04:38:45.104Z,14.07
2023-03-22T04:41:12.480Z,12.13
2023-03-22T04:43:39.777Z,14.10
2023-03-22T04:46:09.145Z,14.43
2023-03-22T04:48:37.813Z,14.27
2023-03-22T04:51:06.124Z,14.80
2023-03-22T04:53:35.266Z,14.23
2023-03-22T04:56:04.222Z,14.90
2023-03-22T04:58:31.559Z,13.20
2023-03-22T05:00:58.882Z,14.93
2023-03-22T05:03:26.302Z,13.80
2023-03-22T05:05:54.314Z,14.80
2023-03-22T05:08:22.223Z,14.60
2023-03-22T05:10:49.564Z,14.47
2023-03-22T05:13:16.901Z,15.10
2023-03-22T05:15:45.419Z,13.97
2023-03-22T05:18:14.173Z,15.10
2023-03-22T05:20:42.354Z,14.83
2023-03-22T05:23:10.155Z,14.90
2023-03-22T05:25:38.228Z,16.20
2023-03-22T05:28:05.950Z,15.93
2023-03-22T05:30:33.661Z,14.80
2023-03-22T05:33:03.339Z,16.70
2023-03-22T05:35:31.734Z,15.20
2023-03-22T05:37:59.034Z,15.33
2023-03-22T05:40:27.051Z,16.30
2023-03-22T05:42:54.745Z,15.00
2023-03-22T05:45:22.389Z,16.17
2023-03-22T05:47:50.372Z,16.80
2023-03-22T05:50:18.863Z,15.73
2023-03-22T05:52:46.356Z,16.13
2023-03-22T05:55:14.371Z,16.97
2023-03-22T05:57:41.881Z,16.60
2023-03-22T06:00:11.801Z,16.83
2023-03-22T06:02:39.848Z,16.63
2023-03-22T06:05:08.129Z,16.80
2023-03-22T06:07:35.757Z,16.57
2023-03-22T06:10:03.948Z,17.37
2023-03-22T06:12:31.869Z,17.80
2023-03-22T06:14:59.414Z,17.70
2023-03-22T06:17:27.503Z,16.73
2023-03-22T06:19:54.802Z,16.77
2023-03-22T06:22:22.291Z,16.40
2023-03-22T06:24:50.583Z,13.40
2023-03-22T06:27:18.001Z,14.13
2023-03-22T06:29:47.305Z,14.33
2023-03-22T06:32:14.642Z,14.90
2023-03-22T06:34:41.956Z,13.20
2023-03-22T06:37:09.304Z,13.17
2023-03-22T06:39:36.648Z,12.60
2023-03-22T06:42:04.055Z,13.70
2023-03-22T06:44:31.390Z,12.20
2023-03-22T06:46:58.635Z,11.77
2023-03-22T06:49:26.288Z,12.90
2023-03-22T06:51:53.601Z,12.13
2023-03-22T06:54:21.162Z,10.50
2023-03-22T06:56:48.509Z,11.20
2023-03-22T06:59:18.687Z,11.30
2023-03-22T07:01:46.082Z,10.60
2023-03-22T07:04:13.429Z,11.80
2023-03-22T07:06:40.885Z,11.87
2023-03-22T07:09:08.218Z,10.70
2023-03-22T07:11:35.556Z,10.70
2023-03-22T07:14:02.805Z,11.70
2023-03-22T07:16:30.177Z,11.67
2023-03-22T07:18:57.511Z,10.67
2023-03-22T07:21:24.877Z,9.93
2023-03-22T07:23:52.232Z,10.47
2023-03-22T07:26:19.673Z,11.00
2023-03-22T07:28:47.084Z,10.50
2023-03-22T07:31:15.185Z,11.60
2023-03-22T07:33:42.706Z,9.93
2023-03-22T07:36:10.463Z,9.57
2023-03-22T07:38:38.178Z,9.80
2023-03-22T07:41:05.905Z,8.63
2023-03-22T07:43:44.065Z,8.70
2023-03-22T07:46:02.207Z,9.10
2023-03-22T07:48:31.492Z,8.97
2023-03-22T07:50:58.885Z,8.80
2023-03-22T07:53:26.378Z,8.70
2023-03-22T07:55:53.717Z,10.03
2023-03-22T07:58:21.043Z,9.60
2023-03-22T08:00:49.470Z,9.23
2023-03-22T08:03:16.797Z,9.87
2023-03-22T08:05:44.288Z,10.00
2023-03-22T08:08:13.350Z,8.70
2023-03-22T08:10:40.872Z,8.50
2023-03-22T08:13:08.486Z,9.00
2023-03-22T08:15:37.653Z,8.30
2023-03-22T08:18:05.277Z,9.07
2023-03-22T08:20:32.633Z,8.40
2023-03-22T08:23:00.976Z,7.80
2023-03-22T08:25:29.355Z,7.10
2023-03-22T08:27:57.256Z,7.53
2023-03-22T08:30:24.835Z,6.87
2023-03-22T08:32:52.165Z,6.50
2023-03-22T08:35:19.547Z,6.73
2023-03-22T08:37:46.841Z,6.43
2023-03-22T08:40:15.051Z,6.30
2023-03-22T08:42:42.460Z,6.33
2023-03-22T08:45:10.421Z,6.30
2023-03-22T08:47:37.742Z,6.10
2023-03-22T08:50:05.872Z,6.87
2023-03-22T08:52:33.205Z,6.00
2023-03-22T08:55:01.491Z,7.07
2023-03-22T08:57:29.257Z,7.07
2023-03-22T08:59:57.573Z,8.00
2023-03-22T09:02:25.514Z,7.50
2023-03-22T09:04:52.872Z,8.07
2023-03-22T09:07:21.050Z,8.40
2023-03-22T09:09:48.386Z,8.00
2023-03-22T09:12:15.714Z,6.73
2023-03-22T09:14:43.563Z,6.77
2023-03-22T09:17:11.105Z,6.43
2023-03-22T09:19:38.602Z,5.70
2023-03-22T09:22:05.969Z,4.77
2023-03-22T09:24:33.320Z,4.87
2023-03-22T09:27:00.999Z,5.27
2023-03-22T09:29:28.319Z,4.20
2023-03-22T09:31:55.640Z,4.20
2023-03-22T09:34:23.047Z,4.70
2023-03-22T09:36:51.984Z,4.03
2023-03-22T09:39:19.252Z,4.23
2023-03-22T09:41:50.861Z,4.63
2023-03-22T09:44:25.967Z,4.03
2023-03-22T09:46:54.475Z,4.20
2023-03-22T09:49:23.350Z,4.70
2023-03-22T09:51:52.264Z,4.70
2023-03-22T09:54:21.389Z,4.50
2023-03-22T09:56:52.960Z,4.33
2023-03-22T09:59:27.933Z,3.47
2023-03-22T10:02:04.630Z,3.57
2023-03-22T10:04:36.309Z,3.07
2023-03-22T10:07:06.582Z,3.67
2023-03-22T10:09:54.514Z,2.93
2023-03-22T10:12:32.643Z,3.50
2023-03-22T10:15:07.732Z,3.20
2023-03-22T10:17:36.537Z,3.70
2023-03-22T10:20:09.176Z,3.10
2023-03-22T10:22:38.033Z,3.50
2023-03-22T10:25:06.455Z,3.63
2023-03-22T10:27:34.756Z,3.63
2023-03-22T10:30:03.778Z,3.53
2023-03-22T10:32:57.243Z,3.10
2023-03-22T10:35:17.157Z,3.40
2023-03-22T10:37:46.143Z,3.20
2023-03-22T10:40:21.002Z,2.97
2023-03-22T10:42:50.037Z,3.07
2023-03-22T10:45:17.664Z,2.70
2023-03-22T10:47:46.573Z,2.70
2023-03-22T10:50:18.153Z,2.23
2023-03-22T10:52:47.177Z,2.70
2023-03-22T10:55:16.812Z,2.60
2023-03-22T10:57:48.789Z,2.10
2023-03-22T11:00:17.254Z,2.10
2023-03-22T11:02:46.150Z,2.37
2023-03-22T11:05:15.121Z,2.13
2023-03-22T11:07:45.700Z,1.87
2023-03-22T11:10:14.653Z,2.00
2023-03-22T11:12:43.645Z,2.17
2023-03-22T11:15:24.536Z,2.17
2023-03-22T11:17:51.968Z,2.00
2023-03-22T11:20:20.896Z,1.70
2023-03-22T11:22:49.250Z,1.90
2023-03-22T11:25:20.195Z,1.63
2023-03-22T11:27:52.811Z,2.00
2023-03-22T11:30:24.534Z,1.70
2023-03-22T11:32:53.421Z,3.00
2023-03-22T11:35:28.076Z,1.63
2023-03-22T11:37:56.310Z,1.70
2023-03-22T11:40:28.066Z,2.27
2023-03-22T11:42:56.550Z,2.00
2023-03-22T11:45:33.635Z,1.87
2023-03-22T11:48:05.291Z,1.70
2023-03-22T11:50:34.272Z,2.13
2023-03-22T11:53:03.160Z,1.93
2023-03-22T11:55:34.416Z,1.83
2023-03-22T11:58:03.785Z,1.73
2023-03-22T12:00:32.763Z,2.00
2023-03-22T12:03:01.759Z,1.63
2023-03-22T12:05:31.123Z,1.83
2023-03-22T12:08:02.682Z,2.00
2023-03-22T12:10:37.580Z,1.57
2023-03-22T12:13:09.447Z,1.73
2023-03-22T12:15:38.443Z,2.10
2023-03-22T12:18:08.247Z,1.83
2023-03-22T12:20:37.403Z,2.10
2023-03-22T12:23:06.450Z,1.97
2023-03-22T12:25:35.217Z,1.70
2023-03-22T12:28:10.630Z,1.53
2023-03-22T12:30:41.029Z,1.70
2023-03-22T12:33:12.959Z,1.57
2023-03-22T12:35:42.143Z,1.70
2023-03-22T12:38:27.875Z,1.50
2023-03-22T12:40:56.702Z,1.37
2023-03-22T12:43:34.976Z,1.40
2023-03-22T12:46:03.919Z,1.50
2023-03-22T12:48:32.804Z,1.37
2023-03-22T12:51:04.581Z,1.33
2023-03-22T12:53:33.418Z,1.30
2023-03-22T12:56:01.438Z,1.30
2023-03-22T12:58:28.757Z,1.40
2023-03-22T13:01:00.665Z,1.30
2023-03-22T13:03:30.038Z,1.23
2023-03-22T13:06:01.767Z,1.20
2023-03-22T13:08:32.250Z,1.40
2023-03-22T13:11:06.248Z,1.40
2023-03-22T13:13:35.199Z,1.15
2023-03-22T13:16:13.079Z,1.27
2023-03-22T13:18:42.191Z,1.30
2023-03-22T13:21:21.110Z,1.10
2023-03-22T13:23:56.397Z,1.20
2023-03-22T13:26:25.622Z,1.20
2023-03-22T13:28:57.430Z,1.20
2023-03-22T13:31:38.511Z,0.90
2023-03-22T13:34:07.425Z,1.60
2023-03-22T13:36:36.385Z,1.47
2023-03-22T13:39:05.299Z,1.23
2023-03-22T13:41:34.154Z,1.20
2023-03-22T13:44:03.922Z,1.30
2023-03-22T13:46:39.667Z,1.10
2023-03-22T13:49:08.626Z,1.30
2023-03-22T13:51:36.090Z,1.50
2023-03-22T13:54:16.677Z,1.30
2023-03-22T13:56:49.586Z,1.43
2023-03-22T13:59:21.357Z,1.47
2023-03-22T14:01:51.075Z,1.73
2023-03-22T14:04:21.645Z,1.90
2023-03-22T14:06:59.795Z,1.47
2023-03-22T14:09:31.585Z,1.70
2023-03-22T14:12:06.673Z,1.60
2023-03-22T14:14:35.556Z,1.70
2023-03-22T14:17:09.179Z,1.60
2023-03-22T14:19:37.529Z,1.50
